createdAt,value
2024-01-07T00:01:56.465Z,7.40
2024-01-07T00:06:58.816Z,7.50
2024-01-07T00:12:33.295Z,7.30
2024-01-07T00:22:37.461Z,5.90
2024-01-07T00:27:39.751Z,6.60
2024-01-07T00:32:51.763Z,7.90
2024-01-07T00:37:59.786Z,6.40
2024-01-07T00:43:20.002Z,7.50
2024-01-07T00:48:22.497Z,7.10
2024-01-07T00:53:24.668Z,7.40
2024-01-07T00:58:26.718Z,7.70
2024-01-07T01:03:37.483Z,7.30
2024-01-07T01:09:00.393Z,6.50
2024-01-07T01:14:02.742Z,6.30
2024-01-07T01:19:25.193Z,6.70
2024-01-07T01:24:57.666Z,7.80
2024-01-07T01:29:59.837Z,8.40
2024-01-07T01:35:05.746Z,7.00
2024-01-07T01:40:17.474Z,6.80
2024-01-07T01:45:19.888Z,6.30
2024-01-07T01:50:23.048Z,7.40
2024-01-07T01:55:25.260Z,5.70
2024-01-07T02:00:27.901Z,6.40
2024-01-07T02:05:30.027Z,6.20
2024-01-07T02:10:35.027Z,6.10
2024-01-07T02:15:37.197Z,7.00
2024-01-07T02:20:39.293Z,6.60
2024-01-07T02:25:52.639Z,6.30
2024-01-07T02:30:57.130Z,5.20
2024-01-07T02:35:59.223Z,5.20
2024-01-07T02:41:08.532Z,5.80
2024-01-07T02:46:10.544Z,5.90
2024-01-07T02:51:12.582Z,5.20
2024-01-07T02:56:14.825Z,5.20
2024-01-07T03:01:22.191Z,4.80
2024-01-07T03:06:28.368Z,5.40
2024-01-07T03:11:30.603Z,6.20
2024-01-07T03:16:32.775Z,6.60
2024-01-07T03:21:37.601Z,5.60
2024-01-07T03:26:39.750Z,5.50
2024-01-07T03:31:41.725Z,4.80
2024-01-07T03:36:43.943Z,5.40
2024-01-07T03:41:45.972Z,5.20
2024-01-07T03:46:47.857Z,5.40
2024-01-07T03:51:49.867Z,4.60
2024-01-07T03:57:03.869Z,5.20
2024-01-07T04:07:10.845Z,5.10
2024-01-07T04:12:13.214Z,6.50
2024-01-07T04:17:15.166Z,6.10
2024-01-07T04:22:17.073Z,5.40
2024-01-07T04:27:19.229Z,5.60
2024-01-07T04:32:21.185Z,4.90
2024-01-07T04:37:23.096Z,5.00
2024-01-07T04:42:25.129Z,6.70
2024-01-07T04:47:29.355Z,5.70
2024-01-07T04:52:31.302Z,5.10
2024-01-07T04:57:33.168Z,5.10
2024-01-07T05:02:35.220Z,5.80
2024-01-07T05:07:38.298Z,5.00
2024-01-07T05:12:40.263Z,5.00
2024-01-07T05:17:42.266Z,7.10
2024-01-07T05:22:44.323Z,7.60
2024-01-07T05:27:46.206Z,8.40
2024-01-07T05:32:48.258Z,9.20
2024-01-07T05:37:50.215Z,6.50
2024-01-07T05:42:52.192Z,6.60
2024-01-07T05:47:54.113Z,5.80
2024-01-07T05:52:56.321Z,6.90
2024-01-07T05:57:58.884Z,7.20
2024-01-07T06:03:01.315Z,5.60
2024-01-07T06:08:04.463Z,8.00
2024-01-07T06:13:06.722Z,9.80
2024-01-07T06:18:08.759Z,6.40
2024-01-07T06:23:10.680Z,7.80
2024-01-07T06:28:12.710Z,7.50
2024-01-07T06:33:15.670Z,6.40
2024-01-07T06:38:17.823Z,5.90
2024-01-07T06:43:19.832Z,5.50
2024-01-07T06:48:22.004Z,8.30
2024-01-07T06:53:24.161Z,8.00
2024-01-07T06:58:26.236Z,6.80
2024-01-07T07:03:28.344Z,6.80
2024-01-07T07:08:30.536Z,6.60
2024-01-07T07:13:32.541Z,9.70
2024-01-07T07:18:34.765Z,5.50
2024-01-07T07:23:36.851Z,6.60
2024-01-07T07:28:38.776Z,7.10
2024-01-07T07:33:41.262Z,7.30
2024-01-07T07:38:43.437Z,9.50
2024-01-07T07:43:48.007Z,8.10
2024-01-07T07:48:50.214Z,6.60
2024-01-07T07:53:52.655Z,8.80
2024-01-07T07:58:54.790Z,9.20
2024-01-07T08:03:57.094Z,10.40
2024-01-07T08:08:59.494Z,11.00
2024-01-07T08:14:06.569Z,8.80
2024-01-07T08:19:08.718Z,7.80
2024-01-07T08:24:11.849Z,6.80
2024-01-07T08:29:13.937Z,6.40
2024-01-07T08:34:22.004Z,8.30
2024-01-07T08:39:26.350Z,8.50
2024-01-07T08:44:28.609Z,7.90
2024-01-07T08:49:33.837Z,7.40
2024-01-07T08:54:36.311Z,7.10
2024-01-07T08:59:38.461Z,6.80
2024-01-07T09:04:40.598Z,6.80
2024-01-07T09:09:42.822Z,6.80
2024-01-07T09:14:44.832Z,8.10
2024-01-07T09:19:47.012Z,11.00
2024-01-07T09:24:50.585Z,12.00
2024-01-07T09:29:53.925Z,12.10
2024-01-07T09:34:56.444Z,10.00
2024-01-07T09:39:59.059Z,13.00
2024-01-07T09:45:06.809Z,9.40
2024-01-07T09:50:10.337Z,8.40
2024-01-07T09:55:27.785Z,11.60
2024-01-07T10:00:30.293Z,8.30
2024-01-07T10:05:32.905Z,8.80
2024-01-07T10:10:48.189Z,9.00
2024-01-07T10:15:50.355Z,10.10
2024-01-07T10:20:55.898Z,12.80
2024-01-07T10:26:03.320Z,10.60
2024-01-07T10:31:08.041Z,8.50
2024-01-07T10:36:10.520Z,8.70
2024-01-07T10:41:13.040Z,9.60
2024-01-07T10:46:16.458Z,8.80
2024-01-07T10:51:21.000Z,12.10
2024-01-07T10:56:24.972Z,9.80
2024-01-07T11:01:27.385Z,14.40
2024-01-07T11:06:44.227Z,12.40
2024-01-07T11:12:08.555Z,10.80
2024-01-07T11:17:30.734Z,12.60
2024-01-07T11:22:41.998Z,10.20
2024-01-07T11:27:44.114Z,13.60
2024-01-07T11:32:52.338Z,16.10
2024-01-07T11:37:55.140Z,10.00
2024-01-07T11:42:57.387Z,11.10
2024-01-07T11:47:59.532Z,11.70
2024-01-07T11:53:01.974Z,10.30
2024-01-07T11:58:04.806Z,10.70
2024-01-07T12:03:10.373Z,12.30
2024-01-07T12:08:13.069Z,10.00
2024-01-07T12:13:16.872Z,7.30
2024-01-07T12:18:20.924Z,8.50
2024-01-07T12:28:31.573Z,9.60
2024-01-07T12:33:34.328Z,9.80
2024-01-07T12:38:39.991Z,10.50
2024-01-07T12:43:42.017Z,7.80
2024-01-07T12:48:44.156Z,7.30
2024-01-07T12:53:51.527Z,8.70
2024-01-07T12:58:53.441Z,8.60
2024-01-07T13:03:55.869Z,9.10
2024-01-07T13:08:58.135Z,10.00
2024-01-07T13:14:02.237Z,9.00
2024-01-07T13:19:04.963Z,8.00
2024-01-07T13:24:07.333Z,6.90
2024-01-07T13:29:09.365Z,8.20
2024-01-07T13:34:14.997Z,10.00
2024-01-07T13:39:18.088Z,11.10
2024-01-07T13:44:20.617Z,11.90
2024-01-07T13:49:23.205Z,9.40
2024-01-07T13:54:25.254Z,16.40
2024-01-07T13:59:27.503Z,12.10
2024-01-07T14:04:29.675Z,9.70
2024-01-07T14:09:32.090Z,12.40
2024-01-07T14:14:34.374Z,12.20
2024-01-07T14:19:36.504Z,14.30
2024-01-07T14:24:38.531Z,12.50
2024-01-07T14:29:40.556Z,10.30
2024-01-07T14:34:43.054Z,14.30
2024-01-07T14:39:46.123Z,16.60
2024-01-07T14:44:51.296Z,17.70
2024-01-07T14:49:53.717Z,11.50
2024-01-07T14:54:57.068Z,18.80
2024-01-07T14:59:58.913Z,15.00
2024-01-07T15:05:01.227Z,26.70
2024-01-07T15:10:03.733Z,16.40
2024-01-07T15:15:07.365Z,13.00
2024-01-07T15:25:12.090Z,18.60
2024-01-07T15:30:22.450Z,17.70
2024-01-07T15:35:49.302Z,12.20
2024-01-07T15:40:51.610Z,19.50
2024-01-07T15:45:57.172Z,15.50
2024-01-07T15:50:59.602Z,11.00
2024-01-07T15:56:04.331Z,11.80
2024-01-07T16:01:07.661Z,13.60
2024-01-07T16:06:10.135Z,14.60
2024-01-07T16:11:17.097Z,11.30
2024-01-07T16:16:21.915Z,9.60
2024-01-07T16:21:24.026Z,9.50
2024-01-07T16:26:25.947Z,8.70
2024-01-07T16:31:28.195Z,9.40
2024-01-07T16:36:30.441Z,7.70
2024-01-07T16:41:32.905Z,7.50
2024-01-07T16:46:36.799Z,8.00
2024-01-07T16:51:39.216Z,7.30
2024-01-07T16:56:42.262Z,7.80
2024-01-07T17:01:45.166Z,12.80
2024-01-07T17:06:49.453Z,12.30
2024-01-07T17:11:51.546Z,12.50
2024-01-07T17:16:55.459Z,10.00
2024-01-07T17:21:57.533Z,10.60
2024-01-07T17:27:00.032Z,10.30
2024-01-07T17:32:02.117Z,9.50
2024-01-07T17:37:04.656Z,10.60
2024-01-07T17:42:08.524Z,8.60
2024-01-07T17:47:10.763Z,8.10
2024-01-07T17:52:13.656Z,8.20
2024-01-07T17:57:16.052Z,9.30
2024-01-07T18:02:18.264Z,13.40
2024-01-07T18:07:20.434Z,11.20
2024-01-07T18:12:24.242Z,10.20
2024-01-07T18:17:26.433Z,9.80
2024-01-07T18:22:29.030Z,14.40
2024-01-07T18:27:31.322Z,14.10
2024-01-07T18:32:35.169Z,25.40
2024-01-07T18:37:37.765Z,31.40
2024-01-07T18:42:40.021Z,9.30
2024-01-07T18:47:44.050Z,18.90
2024-01-07T18:52:46.951Z,19.40
2024-01-07T18:57:49.769Z,15.90
2024-01-07T19:02:51.986Z,13.30
2024-01-07T19:07:54.253Z,13.00
2024-01-07T19:12:56.424Z,11.50
2024-01-07T19:17:58.544Z,11.60
2024-01-07T19:23:04.672Z,22.50
2024-01-07T19:28:06.756Z,37.90
2024-01-07T19:33:09.249Z,17.20
2024-01-07T19:43:16.039Z,18.60
2024-01-07T19:53:29.849Z,22.30
2024-01-07T19:58:33.231Z,18.10
2024-01-07T20:03:41.848Z,15.60
2024-01-07T20:08:49.694Z,20.40
2024-01-07T20:13:52.506Z,13.30
2024-01-07T20:18:54.754Z,28.40
2024-01-07T20:24:01.680Z,21.00
2024-01-07T20:29:08.139Z,19.70
2024-01-07T20:34:11.215Z,16.00
2024-01-07T20:39:13.253Z,14.20
2024-01-07T20:44:15.218Z,11.30
2024-01-07T20:49:17.979Z,12.10
2024-01-07T20:54:20.046Z,7.80
2024-01-07T20:59:22.180Z,15.20
2024-01-07T21:04:24.508Z,11.20
2024-01-07T21:09:26.604Z,12.10
2024-01-07T21:14:28.794Z,17.00
2024-01-07T21:19:30.947Z,10.90
2024-01-07T21:24:34.444Z,11.60
2024-01-07T21:34:38.812Z,12.10
2024-01-07T21:39:42.339Z,13.90
2024-01-07T21:44:45.739Z,11.20
2024-01-07T21:49:49.239Z,12.20
2024-01-07T21:59:53.213Z,11.40
2024-01-07T22:04:55.290Z,10.60
2024-01-07T22:09:58.882Z,11.90
2024-01-07T22:20:02.855Z,9.60
2024-01-07T22:25:05.446Z,7.40
2024-01-07T22:30:07.996Z,8.90
2024-01-07T22:35:11.408Z,7.60
2024-01-07T22:45:15.087Z,9.30
2024-01-07T22:50:17.163Z,8.70
2024-01-07T22:55:19.076Z,8.20
2024-01-07T23:00:24.673Z,8.50
2024-01-07T23:05:26.959Z,8.10
2024-01-07T23:10:29.160Z,8.50
2024-01-07T23:15:31.041Z,10.80
2024-01-07T23:20:35.173Z,10.10
2024-01-07T23:25:37.477Z,10.80
2024-01-07T23:30:39.862Z,9.60
2024-01-07T23:35:50.528Z,9.00
2024-01-07T23:41:00.059Z,7.90
2024-01-07T23:46:02.078Z,11.30
2024-01-07T23:51:04.320Z,6.90
2024-01-07T23:56:06.462Z,8.70
